sensor_id;sensor_type;location;lat;lon;timestamp;pressure;altitude;pressure_sealevel;temperature;humidity
59767;BME280;46248;58.364;25.582;2023-04-29T00:02:34;100794.03;;;1.59;89.91
59767;BME280;46248;58.364;25.582;2023-04-29T00:05:56;100801.81;;;1.58;90.22
59767;BME280;46248;58.364;25.582;2023-04-29T00:09:18;100803.53;;;1.57;90.81
59767;BME280;46248;58.364;25.582;2023-04-29T00:12:41;100800.97;;;1.56;89.82
59767;BME280;46248;58.364;25.582;2023-04-29T00:16:04;100804.41;;;1.58;88.74
59767;BME280;46248;58.364;25.582;2023-04-29T00:19:27;100805.28;;;1.55;89.90
59767;BME280;46248;58.364;25.582;2023-04-29T00:22:50;100807.03;;;1.52;89.20
59767;BME280;46248;58.364;25.582;2023-04-29T00:26:12;100797.59;;;1.49;89.35
59767;BME280;46248;58.364;25.582;2023-04-29T00:29:33;100795.03;;;1.46;89.21
59767;BME280;46248;58.364;25.582;2023-04-29T00:32:56;100793.34;;;1.42;89.08
59767;BME280;46248;58.364;25.582;2023-04-29T00:36:19;100762.56;;;1.21;88.54
59767;BME280;46248;58.364;25.582;2023-04-29T00:39:41;100792.56;;;1.34;87.63
59767;BME280;46248;58.364;25.582;2023-04-29T00:43:03;100797.75;;;1.29;87.68
59767;BME280;46248;58.364;25.582;2023-04-29T00:46:25;100791.81;;;1.24;87.96
59767;BME280;46248;58.364;25.582;2023-04-29T00:49:47;100795.25;;;1.20;88.22
59767;BME280;46248;58.364;25.582;2023-04-29T00:53:11;100798.75;;;1.14;88.03
59767;BME280;46248;58.364;25.582;2023-04-29T00:56:34;100802.22;;;1.10;88.48
59767;BME280;46248;58.364;25.582;2023-04-29T00:59:56;100797.09;;;1.06;89.79
59767;BME280;46248;58.364;25.582;2023-04-29T01:03:19;100793.69;;;1.02;90.18
59767;BME280;46248;58.364;25.582;2023-04-29T01:06:49;100798.88;;;1.01;90.23
59767;BME280;46248;58.364;25.582;2023-04-29T01:10:23;100792.91;;;0.93;89.88
59767;BME280;46248;58.364;25.582;2023-04-29T01:13:49;100796.34;;;0.95;91.02
59767;BME280;46248;58.364;25.582;2023-04-29T01:17:17;100794.59;;;0.95;91.18
59767;BME280;46248;58.364;25.582;2023-04-29T01:20:40;100791.16;;;0.96;92.43
59767;BME280;46248;58.364;25.582;2023-04-29T01:24:05;100804.03;;;1.01;92.25
59767;BME280;46248;58.364;25.582;2023-04-29T01:27:29;100801.41;;;1.02;92.48
59767;BME280;46248;58.364;25.582;2023-04-29T01:30:59;100805.69;;;1.05;91.87
59767;BME280;46248;58.364;25.582;2023-04-29T01:34:29;100795.38;;;1.06;92.64
59767;BME280;46248;58.364;25.582;2023-04-29T01:37:58;100794.47;;;1.09;92.29
59767;BME280;46248;58.364;25.582;2023-04-29T01:41:30;100804.81;;;1.09;92.74
59767;BME280;46248;58.364;25.582;2023-04-29T01:44:59;100768.03;;;0.88;92.81
59767;BME280;46248;58.364;25.582;2023-04-29T01:48:22;100800.56;;;1.02;93.48
59767;BME280;46248;58.364;25.582;2023-04-29T01:51:44;100801.44;;;1.01;93.40
59767;BME280;46248;58.364;25.582;2023-04-29T01:55:07;100802.28;;;1.00;93.73
59767;BME280;46248;58.364;25.582;2023-04-29T01:58:31;100802.28;;;1.01;93.81
59767;BME280;46248;58.364;25.582;2023-04-29T02:01:53;100805.72;;;1.02;94.39
59767;BME280;46248;58.364;25.582;2023-04-29T02:05:18;100814.31;;;1.02;94.50
59767;BME280;46248;58.364;25.582;2023-04-29T02:08:40;100811.72;;;1.02;95.03
59767;BME280;46248;58.364;25.582;2023-04-29T02:12:01;100807.41;;;1.06;95.63
59767;BME280;46248;58.364;25.582;2023-04-29T02:15:26;100809.09;;;1.10;95.24
59767;BME280;46248;58.364;25.582;2023-04-29T02:18:48;100804.78;;;1.13;95.76
59767;BME280;46248;58.364;25.582;2023-04-29T02:22:10;100805.63;;;1.16;95.78
59767;BME280;46248;58.364;25.582;2023-04-29T02:25:32;100809.03;;;1.19;95.72
59767;BME280;46248;58.364;25.582;2023-04-29T02:28:54;100804.69;;;1.23;95.43
59767;BME280;46248;58.364;25.582;2023-04-29T02:32:18;100768.72;;;1.06;95.77
59767;BME280;46248;58.364;25.582;2023-04-29T02:35:40;100802.94;;;1.28;95.62
59767;BME280;46248;58.364;25.582;2023-04-29T02:39:02;100800.34;;;1.29;95.58
59767;BME280;46248;58.364;25.582;2023-04-29T02:42:24;100806.31;;;1.34;95.61
59767;BME280;46248;58.364;25.582;2023-04-29T02:45:46;100791.75;;;1.30;96.34
59767;BME280;46248;58.364;25.582;2023-04-29T02:49:10;100806.25;;;1.42;95.81
59767;BME280;46248;58.364;25.582;2023-04-29T02:52:32;100817.38;;;1.49;95.96
59767;BME280;46248;58.364;25.582;2023-04-29T02:55:54;100804.47;;;1.49;96.33
59767;BME280;46248;58.364;25.582;2023-04-29T02:59:16;100815.53;;;1.60;95.69
59767;BME280;46248;58.364;25.582;2023-04-29T03:02:38;100819.75;;;1.69;95.68
59767;BME280;46248;58.364;25.582;2023-04-29T03:06:02;100811.09;;;1.74;95.76
59767;BME280;46248;58.364;25.582;2023-04-29T03:09:24;100805.03;;;1.78;96.79
59767;BME280;46248;58.364;25.582;2023-04-29T03:12:46;100808.38;;;1.87;96.32
59767;BME280;46248;58.364;25.582;2023-04-29T03:16:08;100820.34;;;1.97;96.71
59767;BME280;46248;58.364;25.582;2023-04-29T03:19:30;100821.94;;;2.07;96.63
59767;BME280;46248;58.364;25.582;2023-04-29T03:22:53;100813.25;;;2.14;97.01
59767;BME280;46248;58.364;25.582;2023-04-29T03:26:15;100821.72;;;2.24;96.81
59767;BME280;46248;58.364;25.582;2023-04-29T03:29:38;100814.75;;;2.32;96.83
59767;BME280;46248;58.364;25.582;2023-04-29T03:33:00;100804.31;;;2.40;95.85
59767;BME280;46248;58.364;25.582;2023-04-29T03:36:22;100811.97;;;2.47;95.84
59767;BME280;46248;58.364;25.582;2023-04-29T03:39:45;100810.09;;;2.57;95.67
59767;BME280;46248;58.364;25.582;2023-04-29T03:43:07;100811.69;;;2.67;95.62
59767;BME280;46248;58.364;25.582;2023-04-29T03:46:29;100802.03;;;2.80;95.79
59767;BME280;46248;58.364;25.582;2023-04-29T03:49:51;100818.81;;;3.10;94.79
59767;BME280;46248;58.364;25.582;2023-04-29T03:53:14;100815.94;;;3.29;93.84
59767;BME280;46248;58.364;25.582;2023-04-29T03:56:37;100813.06;;;3.46;92.66
59767;BME280;46248;58.364;25.582;2023-04-29T04:00:00;100818.78;;;3.64;93.00
59767;BME280;46248;58.364;25.582;2023-04-29T04:03:22;100811.63;;;3.77;92.53
59767;BME280;46248;58.364;25.582;2023-04-29T04:06:45;100812.97;;;3.98;91.36
59767;BME280;46248;58.364;25.582;2023-04-29T04:10:11;100811.78;;;4.15;91.16
59767;BME280;46248;58.364;25.582;2023-04-29T04:13:34;100806.25;;;4.31;90.36
59767;BME280;46248;58.364;25.582;2023-04-29T04:16:56;100770.91;;;4.27;90.92
59767;BME280;46248;58.364;25.582;2023-04-29T04:20:18;100806.44;;;4.63;90.14
59767;BME280;46248;58.364;25.582;2023-04-29T04:23:40;100803.56;;;4.75;89.52
59767;BME280;46248;58.364;25.582;2023-04-29T04:27:03;100807.69;;;4.85;89.13
59767;BME280;46248;58.364;25.582;2023-04-29T04:30:26;100802.13;;;5.00;89.10
59767;BME280;46248;58.364;25.582;2023-04-29T04:33:48;100808.63;;;5.18;88.68
59767;BME280;46248;58.364;25.582;2023-04-29T04:37:10;100809.00;;;5.37;88.11
59767;BME280;46248;58.364;25.582;2023-04-29T04:40:32;100813.00;;;5.50;87.13
59767;BME280;46248;58.364;25.582;2023-04-29T04:43:54;100811.91;;;5.59;87.29
59767;BME280;46248;58.364;25.582;2023-04-29T04:47:17;100817.03;;;5.62;86.26
59767;BME280;46248;58.364;25.582;2023-04-29T04:50:39;100794.88;;;5.47;87.11
59767;BME280;46248;58.364;25.582;2023-04-29T04:54:01;100823.78;;;5.69;87.33
59767;BME280;46248;58.364;25.582;2023-04-29T04:57:23;100818.38;;;5.77;86.93
59767;BME280;46248;58.364;25.582;2023-04-29T05:00:45;100826.97;;;5.79;86.40
59767;BME280;46248;58.364;25.582;2023-04-29T05:04:08;100827.75;;;5.83;86.37
59767;BME280;46248;58.364;25.582;2023-04-29T05:07:31;100829.34;;;5.87;86.29
59767;BME280;46248;58.364;25.582;2023-04-29T05:10:55;100831.16;;;5.85;86.32
59767;BME280;46248;58.364;25.582;2023-04-29T05:14:17;100838.13;;;5.84;85.64
59767;BME280;46248;58.364;25.582;2023-04-29T05:17:39;100832.00;;;5.85;85.16
59767;BME280;46248;58.364;25.582;2023-04-29T05:21:02;100834.44;;;5.91;84.41
59767;BME280;46248;58.364;25.582;2023-04-29T05:24:24;100833.53;;;5.92;84.37
59767;BME280;46248;58.364;25.582;2023-04-29T05:27:46;100832.69;;;5.92;84.24
59767;BME280;46248;58.364;25.582;2023-04-29T05:31:08;100826.53;;;5.97;85.17
59767;BME280;46248;58.364;25.582;2023-04-29T05:34:30;100836.66;;;6.07;84.42
59767;BME280;46248;58.364;25.582;2023-04-29T05:37:53;100832.22;;;6.10;84.06
59767;BME280;46248;58.364;25.582;2023-04-29T05:41:15;100835.75;;;6.08;82.12
59767;BME280;46248;58.364;25.582;2023-04-29T05:44:37;100840.25;;;6.03;83.47
59767;BME280;46248;58.364;25.582;2023-04-29T05:48:00;100838.19;;;6.14;82.59
59767;BME280;46248;58.364;25.582;2023-04-29T05:51:22;100846.25;;;6.36;83.09
59767;BME280;46248;58.364;25.582;2023-04-29T05:54:46;100842.78;;;6.65;81.46
59767;BME280;46248;58.364;25.582;2023-04-29T05:58:08;100849.16;;;6.84;80.94
59767;BME280;46248;58.364;25.582;2023-04-29T06:01:29;100839.34;;;7.21;80.15
59767;BME280;46248;58.364;25.582;2023-04-29T06:04:52;100840.63;;;7.61;78.46
59767;BME280;46248;58.364;25.582;2023-04-29T06:08:14;100831.75;;;7.91;74.55
59767;BME280;46248;58.364;25.582;2023-04-29T06:11:37;100825.47;;;7.97;73.87
59767;BME280;46248;58.364;25.582;2023-04-29T06:15:00;100839.31;;;7.99;72.17
59767;BME280;46248;58.364;25.582;2023-04-29T06:18:21;100840.84;;;8.04;73.30
59767;BME280;46248;58.364;25.582;2023-04-29T06:21:43;100836.31;;;8.10;71.87
59767;BME280;46248;58.364;25.582;2023-04-29T06:25:05;100843.22;;;8.36;71.82
59767;BME280;46248;58.364;25.582;2023-04-29T06:28:29;100842.94;;;8.43;70.36
59767;BME280;46248;58.364;25.582;2023-04-29T06:31:51;100835.38;;;8.36;71.83
59767;BME280;46248;58.364;25.582;2023-04-29T06:35:13;100840.34;;;8.18;70.55
59767;BME280;46248;58.364;25.582;2023-04-29T06:38:35;100845.31;;;8.26;69.29
59767;BME280;46248;58.364;25.582;2023-04-29T06:41:57;100854.34;;;8.41;71.02
59767;BME280;46248;58.364;25.582;2023-04-29T06:45:20;100862.06;;;8.44;69.26
59767;BME280;46248;58.364;25.582;2023-04-29T06:48:44;100856.94;;;8.41;70.90
59767;BME280;46248;58.364;25.582;2023-04-29T06:52:06;100863.59;;;8.49;68.54
59767;BME280;46248;58.364;25.582;2023-04-29T06:55:28;100849.13;;;8.64;68.90
59767;BME280;46248;58.364;25.582;2023-04-29T06:58:50;100852.19;;;8.52;68.60
59767;BME280;46248;58.364;25.582;2023-04-29T07:02:13;100851.84;;;8.13;67.96
59767;BME280;46248;58.364;25.582;2023-04-29T07:05:35;100850.47;;;7.77;69.58
59767;BME280;46248;58.364;25.582;2023-04-29T07:08:58;100854.09;;;7.73;70.63
59767;BME280;46248;58.364;25.582;2023-04-29T07:12:20;100852.56;;;7.93;71.86
59767;BME280;46248;58.364;25.582;2023-04-29T07:15:42;100848.13;;;7.95;69.38
59767;BME280;46248;58.364;25.582;2023-04-29T07:19:05;100851.97;;;8.10;69.46
59767;BME280;46248;58.364;25.582;2023-04-29T07:22:27;100859.56;;;8.41;69.77
59767;BME280;46248;58.364;25.582;2023-04-29T07:25:49;100858.13;;;8.79;68.46
59767;BME280;46248;58.364;25.582;2023-04-29T07:29:11;100852.91;;;9.01;65.05
59767;BME280;46248;58.364;25.582;2023-04-29T07:32:33;100853.53;;;9.08;63.21
59767;BME280;46248;58.364;25.582;2023-04-29T07:35:56;100861.31;;;9.09;61.73
59767;BME280;46248;58.364;25.582;2023-04-29T07:39:19;100855.91;;;9.14;60.76
59767;BME280;46248;58.364;25.582;2023-04-29T07:42:41;100849.56;;;9.42;62.26
59767;BME280;46248;58.364;25.582;2023-04-29T07:46:02;100854.34;;;9.73;60.65
59767;BME280;46248;58.364;25.582;2023-04-29T07:49:25;100853.56;;;9.91;58.06
59767;BME280;46248;58.364;25.582;2023-04-29T07:52:49;100855.59;;;9.84;55.67
59767;BME280;46248;58.364;25.582;2023-04-29T07:56:11;100853.13;;;10.02;58.68
59767;BME280;46248;58.364;25.582;2023-04-29T07:59:33;100844.31;;;10.23;58.24
59767;BME280;46248;58.364;25.582;2023-04-29T08:02:55;100841.41;;;10.50;56.53
59767;BME280;46248;58.364;25.582;2023-04-29T08:06:17;100841.69;;;10.63;54.87
59767;BME280;46248;58.364;25.582;2023-04-29T08:09:41;100855.06;;;10.75;53.64
59767;BME280;46248;58.364;25.582;2023-04-29T08:13:03;100862.50;;;10.47;52.01
59767;BME280;46248;58.364;25.582;2023-04-29T08:16:25;100858.09;;;10.08;54.11
59767;BME280;46248;58.364;25.582;2023-04-29T08:19:47;100852.06;;;10.06;54.10
59767;BME280;46248;58.364;25.582;2023-04-29T08:23:10;100852.22;;;10.42;53.70
59767;BME280;46248;58.364;25.582;2023-04-29T08:26:33;100840.47;;;10.70;51.32
59767;BME280;46248;58.364;25.582;2023-04-29T08:29:55;100845.38;;;10.77;51.61
59767;BME280;46248;58.364;25.582;2023-04-29T08:33:17;100856.03;;;10.73;51.02
59767;BME280;46248;58.364;25.582;2023-04-29T08:36:39;100859.16;;;10.81;54.27
59767;BME280;46248;58.364;25.582;2023-04-29T08:40:01;100839.31;;;10.94;48.01
59767;BME280;46248;58.364;25.582;2023-04-29T08:43:25;100851.38;;;10.80;48.68
59767;BME280;46248;58.364;25.582;2023-04-29T08:46:47;100864.47;;;10.61;47.36
59767;BME280;46248;58.364;25.582;2023-04-29T08:50:10;100869.84;;;10.18;48.15
59767;BME280;46248;58.364;25.582;2023-04-29T08:53:33;100869.75;;;9.80;48.03
59767;BME280;46248;58.364;25.582;2023-04-29T08:56:55;100875.78;;;9.60;50.34
59767;BME280;46248;58.364;25.582;2023-04-29T09:00:20;100868.19;;;9.54;51.07
59767;BME280;46248;58.364;25.582;2023-04-29T09:03:49;100870.22;;;9.68;50.08
59767;BME280;46248;58.364;25.582;2023-04-29T09:07:12;100865.34;;;9.81;49.68
59767;BME280;46248;58.364;25.582;2023-04-29T09:10:35;100858.34;;;10.02;47.81
59767;BME280;46248;58.364;25.582;2023-04-29T09:13:58;100865.50;;;10.38;45.78
59767;BME280;46248;58.364;25.582;2023-04-29T09:17:37;100854.34;;;10.72;45.78
59767;BME280;46248;58.364;25.582;2023-04-29T09:21:13;100858.25;;;11.18;46.12
59767;BME280;46248;58.364;25.582;2023-04-29T09:24:35;100851.97;;;11.40;45.15
59767;BME280;46248;58.364;25.582;2023-04-29T09:27:57;100856.53;;;11.54;43.50
59767;BME280;46248;58.364;25.582;2023-04-29T09:31:26;100843.28;;;11.57;41.85
59767;BME280;46248;58.364;25.582;2023-04-29T09:34:50;100861.56;;;11.76;42.76
59767;BME280;46248;58.364;25.582;2023-04-29T09:38:13;100853.22;;;12.02;41.64
59767;BME280;46248;58.364;25.582;2023-04-29T09:41:40;100846.25;;;12.19;42.66
59767;BME280;46248;58.364;25.582;2023-04-29T09:45:02;100849.59;;;12.38;40.68
59767;BME280;46248;58.364;25.582;2023-04-29T09:48:30;100843.66;;;12.34;40.89
59767;BME280;46248;58.364;25.582;2023-04-29T09:51:56;100846.22;;;12.52;42.38
59767;BME280;46248;58.364;25.582;2023-04-29T09:55:18;100843.25;;;12.58;38.00
59767;BME280;46248;58.364;25.582;2023-04-29T09:58:41;100836.06;;;12.61;39.39
59767;BME280;46248;58.364;25.582;2023-04-29T10:02:06;100851.31;;;12.71;38.00
59767;BME280;46248;58.364;25.582;2023-04-29T10:05:30;100850.63;;;12.67;35.53
59767;BME280;46248;58.364;25.582;2023-04-29T10:08:54;100859.78;;;12.44;37.16
59767;BME280;46248;58.364;25.582;2023-04-29T10:12:18;100854.28;;;12.15;37.52
59767;BME280;46248;58.364;25.582;2023-04-29T10:15:46;100844.56;;;11.83;38.43
59767;BME280;46248;58.364;25.582;2023-04-29T10:19:11;100848.81;;;11.51;39.80
59767;BME280;46248;58.364;25.582;2023-04-29T10:22:40;100854.28;;;11.29;39.04
59767;BME280;46248;58.364;25.582;2023-04-29T10:26:07;100854.09;;;11.14;40.67
59767;BME280;46248;58.364;25.582;2023-04-29T10:29:33;100850.53;;;11.15;40.10
59767;BME280;46248;58.364;25.582;2023-04-29T10:32:58;100844.34;;;11.35;37.31
59767;BME280;46248;58.364;25.582;2023-04-29T10:36:23;100844.19;;;11.38;40.17
59767;BME280;46248;58.364;25.582;2023-04-29T10:39:49;100846.34;;;11.48;36.63
59767;BME280;46248;58.364;25.582;2023-04-29T10:43:14;100844.03;;;11.41;35.84
59767;BME280;46248;58.364;25.582;2023-04-29T10:46:36;100841.81;;;11.51;36.91
59767;BME280;46248;58.364;25.582;2023-04-29T10:50:03;100851.53;;;11.66;36.17
59767;BME280;46248;58.364;25.582;2023-04-29T10:53:26;100856.22;;;11.60;35.07
59767;BME280;46248;58.364;25.582;2023-04-29T10:56:50;100847.13;;;11.67;38.37
59767;BME280;46248;58.364;25.582;2023-04-29T11:00:22;100851.31;;;11.88;34.56
59767;BME280;46248;58.364;25.582;2023-04-29T11:03:52;100845.22;;;11.88;33.91
59767;BME280;46248;58.364;25.582;2023-04-29T11:07:25;100832.63;;;11.95;32.05
59767;BME280;46248;58.364;25.582;2023-04-29T11:10:51;100833.78;;;11.89;35.15
59767;BME280;46248;58.364;25.582;2023-04-29T11:14:14;100848.13;;;11.82;36.41
59767;BME280;46248;58.364;25.582;2023-04-29T11:17:37;100833.25;;;11.65;34.85
59767;BME280;46248;58.364;25.582;2023-04-29T11:21:13;100839.41;;;11.81;34.90
59767;BME280;46248;58.364;25.582;2023-04-29T11:24:35;100832.63;;;11.95;32.28
59767;BME280;46248;58.364;25.582;2023-04-29T11:27:58;100836.38;;;12.06;35.90
59767;BME280;46248;58.364;25.582;2023-04-29T11:31:25;100822.25;;;12.09;35.37
59767;BME280;46248;58.364;25.582;2023-04-29T11:34:49;100831.94;;;12.24;35.54
59767;BME280;46248;58.364;25.582;2023-04-29T11:38:11;100835.78;;;12.34;35.73
59767;BME280;46248;58.364;25.582;2023-04-29T11:41:33;100829.94;;;12.45;35.71
59767;BME280;46248;58.364;25.582;2023-04-29T11:44:56;100826.41;;;12.62;35.43
59767;BME280;46248;58.364;25.582;2023-04-29T11:48:20;100826.75;;;12.72;35.24
59767;BME280;46248;58.364;25.582;2023-04-29T11:51:44;100822.34;;;12.56;33.51
59767;BME280;46248;58.364;25.582;2023-04-29T11:55:08;100824.03;;;12.42;34.80
59767;BME280;46248;58.364;25.582;2023-04-29T11:58:31;100819.66;;;12.25;34.78
59767;BME280;46248;58.364;25.582;2023-04-29T12:01:53;100809.13;;;12.09;36.21
59767;BME280;46248;58.364;25.582;2023-04-29T12:05:15;100822.38;;;11.90;36.79
59767;BME280;46248;58.364;25.582;2023-04-29T12:08:40;100817.19;;;11.88;36.67
59767;BME280;46248;58.364;25.582;2023-04-29T12:12:02;100818.66;;;11.94;37.25
59767;BME280;46248;58.364;25.582;2023-04-29T12:15:27;100816.81;;;11.96;35.79
59767;BME280;46248;58.364;25.582;2023-04-29T12:18:50;100813.56;;;11.91;34.61
59767;BME280;46248;58.364;25.582;2023-04-29T12:22:12;100808.16;;;11.77;35.51
59767;BME280;46248;58.364;25.582;2023-04-29T12:25:35;100806.31;;;11.79;35.20
59767;BME280;46248;58.364;25.582;2023-04-29T12:28:58;100799.59;;;11.73;35.18
59767;BME280;46248;58.364;25.582;2023-04-29T12:32:22;100801.22;;;11.76;36.56
59767;BME280;46248;58.364;25.582;2023-04-29T12:35:44;100795.13;;;11.93;34.19
59767;BME280;46248;58.364;25.582;2023-04-29T12:39:06;100797.91;;;11.89;35.07
59767;BME280;46248;58.364;25.582;2023-04-29T12:42:32;100788.25;;;11.90;36.18
59767;BME280;46248;58.364;25.582;2023-04-29T12:45:59;100792.72;;;11.88;35.76
59767;BME280;46248;58.364;25.582;2023-04-29T12:49:23;100790.88;;;11.90;36.26
59767;BME280;46248;58.364;25.582;2023-04-29T12:52:45;100774.28;;;11.72;34.88
59767;BME280;46248;58.364;25.582;2023-04-29T12:56:07;100785.88;;;11.85;36.53
59767;BME280;46248;58.364;25.582;2023-04-29T12:59:30;100798.75;;;11.90;36.16
59767;BME280;46248;58.364;25.582;2023-04-29T13:02:52;100788.09;;;11.93;36.41
59767;BME280;46248;58.364;25.582;2023-04-29T13:06:14;100789.47;;;12.00;36.37
59767;BME280;46248;58.364;25.582;2023-04-29T13:09:37;100792.72;;;12.05;35.47
59767;BME280;46248;58.364;25.582;2023-04-29T13:13:00;100791.38;;;12.14;36.18
59767;BME280;46248;58.364;25.582;2023-04-29T13:16:25;100788.94;;;12.27;34.88
59767;BME280;46248;58.364;25.582;2023-04-29T13:19:47;100787.75;;;12.32;35.78
59767;BME280;46248;58.364;25.582;2023-04-29T13:23:11;100784.13;;;12.35;36.05
59767;BME280;46248;58.364;25.582;2023-04-29T13:26:33;100781.91;;;12.27;36.14
59767;BME280;46248;58.364;25.582;2023-04-29T13:29:54;100783.34;;;12.17;35.71
59767;BME280;46248;58.364;25.582;2023-04-29T13:33:19;100778.81;;;12.19;37.14
59767;BME280;46248;58.364;25.582;2023-04-29T13:36:41;100767.31;;;12.22;35.79
59767;BME280;46248;58.364;25.582;2023-04-29T13:40:03;100779.16;;;12.13;36.85
59767;BME280;46248;58.364;25.582;2023-04-29T13:43:27;100772.22;;;12.12;37.66
59767;BME280;46248;58.364;25.582;2023-04-29T13:46:58;100762.16;;;12.20;38.09
59767;BME280;46248;58.364;25.582;2023-04-29T13:50:22;100760.88;;;12.27;36.69
59767;BME280;46248;58.364;25.582;2023-04-29T13:54:04;100761.16;;;12.38;37.67
59767;BME280;46248;58.364;25.582;2023-04-29T13:57:29;100756.06;;;12.67;36.90
59767;BME280;46248;58.364;25.582;2023-04-29T14:00:53;100754.66;;;12.92;36.91
59767;BME280;46248;58.364;25.582;2023-04-29T14:04:18;100730.69;;;12.82;36.24
59767;BME280;46248;58.364;25.582;2023-04-29T14:07:41;100749.22;;;12.95;36.31
59767;BME280;46248;58.364;25.582;2023-04-29T14:11:03;100751.47;;;12.87;36.24
59767;BME280;46248;58.364;25.582;2023-04-29T14:14:25;100751.41;;;12.72;36.12
59767;BME280;46248;58.364;25.582;2023-04-29T14:17:47;100738.44;;;12.69;35.74
59767;BME280;46248;58.364;25.582;2023-04-29T14:21:10;100744.81;;;12.65;36.74
59767;BME280;46248;58.364;25.582;2023-04-29T14:24:38;100733.84;;;12.73;36.67
59767;BME280;46248;58.364;25.582;2023-04-29T14:28:00;100734.69;;;12.73;36.94
59767;BME280;46248;58.364;25.582;2023-04-29T14:31:23;100735.88;;;12.68;35.89
59767;BME280;46248;58.364;25.582;2023-04-29T14:34:47;100723.03;;;12.47;35.33
59767;BME280;46248;58.364;25.582;2023-04-29T14:38:09;100724.22;;;12.57;36.25
59767;BME280;46248;58.364;25.582;2023-04-29T14:41:32;100726.31;;;12.67;36.07
59767;BME280;46248;58.364;25.582;2023-04-29T14:44:54;100717.94;;;12.60;36.14
59767;BME280;46248;58.364;25.582;2023-04-29T14:48:16;100719.97;;;12.55;36.37
59767;BME280;46248;58.364;25.582;2023-04-29T14:51:37;100711.28;;;12.38;33.39
59767;BME280;46248;58.364;25.582;2023-04-29T14:54:59;100700.25;;;12.48;36.28
59767;BME280;46248;58.364;25.582;2023-04-29T14:58:23;100700.56;;;12.57;35.56
59767;BME280;46248;58.364;25.582;2023-04-29T15:01:45;100696.41;;;12.69;35.20
59767;BME280;46248;58.364;25.582;2023-04-29T15:05:07;100697.66;;;12.78;35.31
59767;BME280;46248;58.364;25.582;2023-04-29T15:08:29;100688.81;;;12.79;34.78
59767;BME280;46248;58.364;25.582;2023-04-29T15:11:51;100682.72;;;12.78;34.65
59767;BME280;46248;58.364;25.582;2023-04-29T15:15:14;100679.75;;;12.84;34.53
59767;BME280;46248;58.364;25.582;2023-04-29T15:18:36;100677.47;;;12.78;34.66
59767;BME280;46248;58.364;25.582;2023-04-29T15:21:58;100673.06;;;12.79;35.14
59767;BME280;46248;58.364;25.582;2023-04-29T15:25:20;100667.81;;;12.79;34.97
59767;BME280;46248;58.364;25.582;2023-04-29T15:28:46;100667.97;;;12.76;35.14
59767;BME280;46248;58.364;25.582;2023-04-29T15:32:09;100671.28;;;12.79;35.17
59767;BME280;46248;58.364;25.582;2023-04-29T15:35:33;100665.34;;;12.76;34.25
59767;BME280;46248;58.364;25.582;2023-04-29T15:38:56;100669.19;;;12.70;35.30
59767;BME280;46248;58.364;25.582;2023-04-29T15:42:18;100663.25;;;12.67;34.27
59767;BME280;46248;58.364;25.582;2023-04-29T15:45:40;100656.25;;;12.51;32.29
59767;BME280;46248;58.364;25.582;2023-04-29T15:49:04;100661.44;;;12.37;34.17
59767;BME280;46248;58.364;25.582;2023-04-29T15:52:26;100659.94;;;12.33;35.07
59767;BME280;46248;58.364;25.582;2023-04-29T15:55:48;100657.47;;;12.30;35.05
59767;BME280;46248;58.364;25.582;2023-04-29T15:59:10;100655.28;;;12.22;34.43
59767;BME280;46248;58.364;25.582;2023-04-29T16:02:32;100648.97;;;12.10;33.91
59767;BME280;46248;58.364;25.582;2023-04-29T16:05:56;100640.88;;;11.98;33.56
59767;BME280;46248;58.364;25.582;2023-04-29T16:09:18;100636.91;;;11.90;35.09
59767;BME280;46248;58.364;25.582;2023-04-29T16:12:40;100635.53;;;11.83;34.79
59767;BME280;46248;58.364;25.582;2023-04-29T16:16:02;100633.31;;;11.76;34.35
59767;BME280;46248;58.364;25.582;2023-04-29T16:19:24;100627.63;;;11.67;35.08
59767;BME280;46248;58.364;25.582;2023-04-29T16:22:48;100635.59;;;11.66;35.23
59767;BME280;46248;58.364;25.582;2023-04-29T16:26:10;100623.66;;;11.60;35.26
59767;BME280;46248;58.364;25.582;2023-04-29T16:29:31;100613.66;;;11.51;35.40
59767;BME280;46248;58.364;25.582;2023-04-29T16:32:53;100624.31;;;11.48;35.90
59767;BME280;46248;58.364;25.582;2023-04-29T16:36:16;100614.16;;;11.42;36.20
59767;BME280;46248;58.364;25.582;2023-04-29T16:39:39;100611.75;;;11.37;36.01
59767;BME280;46248;58.364;25.582;2023-04-29T16:43:02;100605.94;;;11.32;36.03
59767;BME280;46248;58.364;25.582;2023-04-29T16:46:24;100604.47;;;11.27;36.19
59767;BME280;46248;58.364;25.582;2023-04-29T16:49:46;100601.25;;;11.21;36.71
59767;BME280;46248;58.364;25.582;2023-04-29T16:53:08;100606.75;;;11.17;36.88
59767;BME280;46248;58.364;25.582;2023-04-29T16:56:32;100605.13;;;11.14;36.84
59767;BME280;46248;58.364;25.582;2023-04-29T16:59:54;100613.22;;;11.10;37.57
59767;BME280;46248;58.364;25.582;2023-04-29T17:03:16;100606.44;;;11.06;37.31
59767;BME280;46248;58.364;25.582;2023-04-29T17:06:38;100609.28;;;11.01;37.52
59767;BME280;46248;58.364;25.582;2023-04-29T17:10:01;100591.59;;;10.89;37.76
59767;BME280;46248;58.364;25.582;2023-04-29T17:13:24;100607.25;;;10.90;38.08
59767;BME280;46248;58.364;25.582;2023-04-29T17:16:46;100599.53;;;10.87;38.02
59767;BME280;46248;58.364;25.582;2023-04-29T17:20:09;100589.28;;;10.83;38.33
59767;BME280;46248;58.364;25.582;2023-04-29T17:23:31;100584.34;;;10.76;38.69
59767;BME280;46248;58.364;25.582;2023-04-29T17:26:53;100583.81;;;10.70;39.36
59767;BME280;46248;58.364;25.582;2023-04-29T17:30:17;100581.50;;;10.64;39.34
59767;BME280;46248;58.364;25.582;2023-04-29T17:33:39;100570.56;;;10.55;40.05
59767;BME280;46248;58.364;25.582;2023-04-29T17:37:14;100565.88;;;10.45;39.94